Latest Weather Observations for Casino

IDN60801

Issued at 7:05 pm EST Sunday 31 July 2016 (issued every 30 minutes, with the page automatically refreshed every 10 minutes)

About weather observations | Map of weather stations | Latest weather observations for NSW | Other Formats
Station Details ID: 058208 Name: CASINO AIRPORT AWS Lat: -28.88 Lon: 153.06 Height: 20.9 m
Data from the previous 72 hours. | See also: Recent months at Casino
Date/Time
EST
Temp
°C
App
Temp
°C
Dew
Point
°C
Rel
Hum
%
Delta-T
°C
Wind Press
QNH
hPa
Press
MSL
hPa
Rain since
9am
mm
Dir  Spd
km/h
Gust
km/h
Spd
kts
Gust
kts
31/07:00pm 10.7 9.8 6.1 73 2.1 CALM 0 0 0 0 1017.4 1017.4 0.0
31/06:30pm 11.8 10.0 5.4 65 3.0 SSE 4 7 2 4 1017.1 1017.1 0.0
31/06:00pm 13.9 13.0 6.0 59 3.8 CALM 0 0 0 0 1016.7 1016.7 0.0
31/05:30pm 16.5 15.6 6.1 50 5.1 CALM 0 0 0 0 1016.4 1016.4 0.0
31/05:00pm 18.9 16.5 5.4 41 6.6 N 7 7 4 4 1016.0 1016.0 0.0
31/04:30pm 21.8 19.0 5.3 34 8.2 N 9 11 5 6 1015.7 1015.7 0.0
31/04:00pm 23.4 19.8 4.9 30 9.2 N 13 17 7 9 1015.7 1015.7 0.0
31/03:30pm 24.4 21.1 4.7 28 9.8 NNW 11 17 6 9 1015.6 1015.6 0.0
31/03:00pm 24.7 21.3 3.9 26 10.3 NNW 11 17 6 9 1015.9 1015.9 0.0
31/02:30pm 24.6 20.4 3.8 26 10.2 NNW 15 22 8 12 1015.8 1015.8 0.0
31/02:00pm 24.3 20.5 4.1 27 10.0 NW 13 22 7 12 1016.0 1016.0 0.0
31/01:30pm 23.9 19.7 3.8 27 9.9 NW 15 24 8 13 1016.3 1016.3 0.0
31/01:00pm 23.8 19.7 4.2 28 9.7 NW 15 22 8 12 1017.0 1017.0 0.0
31/12:30pm 23.7 20.3 7.8 36 8.4 NW 15 24 8 13 1017.4 1017.4 0.0
31/12:00pm 22.8 20.1 8.9 41 7.4 NW 13 22 7 12 1018.0 1018.0 0.0
31/11:30am 21.1 17.9 8.4 44 6.7 NW 15 22 8 12 1018.8 1018.8 0.0
31/11:00am 20.6 19.2 11.0 54 5.3 NW 9 13 5 7 1019.4 1019.4 0.0
31/10:30am 19.5 17.9 11.5 60 4.4 NW 11 17 6 9 1019.8 1019.8 0.0
31/10:00am 17.3 15.8 11.8 70 3.0 NNW 11 15 6 8 1020.0 1020.0 0.0
31/09:30am 15.5 13.6 11.7 78 2.1 NNW 13 17 7 9 1020.4 1020.4 0.0
31/09:00am 13.9 11.4 11.2 84 1.4 NW 15 17 8 9 1020.6 1020.6 0.0
31/08:30am 12.3 10.8 10.4 88 1.0 NW 9 13 5 7 1020.7 1020.7 0.0
31/08:00am 10.8 9.1 9.7 93 0.6 NW 9 11 5 6 1020.5 1020.5 0.0
31/07:30am 8.7 6.9 7.8 94 0.4 NW 7 9 4 5 1020.4 1020.4 0.0
31/07:00am 7.0 4.4 5.9 93 0.5 WNW 9 11 5 6 1020.2 1020.2 0.0
31/06:30am 7.3 5.1 6.2 93 0.5 WNW 7 11 4 6 1019.8 1019.8 0.0
31/06:00am 7.3 5.1 6.2 93 0.5 NW 7 7 4 4 1019.7 1019.7 0.0
31/05:30am 7.7 5.3 6.8 94 0.4 NW 9 13 5 7 1019.4 1019.4 0.0
31/05:00am 7.8 4.6 6.9 94 0.4 WNW 13 15 7 8 1019.0 1019.0 0.0
31/04:30am 8.0 5.6 7.1 94 0.4 W 9 15 5 8 1018.9 1018.9 0.0
31/04:00am 7.9 5.8 6.8 93 0.5 WNW 7 9 4 5 1019.0 1019.0 0.0
31/03:30am 7.9 5.8 6.8 93 0.5 WNW 7 9 4 5 1019.1 1019.1 0.0
31/03:00am 8.0 6.5 6.8 92 0.6 WNW 4 7 2 4 1019.3 1019.3 0.0
31/02:30am 9.1 7.0 8.2 94 0.4 W 9 11 5 6 1019.6 1019.6 0.0
31/02:00am 8.0 5.9 6.8 92 0.6 W 7 9 4 5 1020.0 1020.0 0.0
31/01:30am 8.5 6.6 6.8 89 0.8 W 6 7 3 4 1020.2 1020.2 0.0
31/01:00am 10.3 8.4 9.1 92 0.6 WNW 9 11 5 6 1020.4 1020.4 0.0
31/12:30am 10.6 8.7 9.2 91 0.7 NW 9 11 5 6 1020.5 1020.5 0.0
31/12:00am 10.8 9.0 9.4 91 0.7 W 9 11 5 6 1020.8 1020.8 0.0
 
Date/Time
EST
Temp
°C
App
Temp
°C
Dew
Point
°C
Rel
Hum
%
Delta-T
°C
Wind Press
QNH
hPa
Press
MSL
hPa
Rain since
9am
mm
Dir  Spd
km/h
Gust
km/h
Spd
kts
Gust
kts
30/11:30pm 11.6 10.0 10.3 92 0.7 W 9 13 5 7 1021.1 1021.1 0.0
30/11:00pm 11.5 10.3 10.2 92 0.7 W 7 11 4 6 1021.3 1021.3 0.0
30/10:30pm 10.7 9.2 9.1 90 0.8 NNW 7 9 4 5 1021.3 1021.3 0.0
30/10:00pm 11.3 10.3 10.2 93 0.6 NW 6 7 3 4 1021.3 1021.3 0.0
30/09:30pm 10.6 9.2 9.5 93 0.6 WNW 7 9 4 5 1021.2 1021.2 0.0
30/09:00pm 9.7 8.2 8.5 92 0.6 WNW 6 7 3 4 1021.0 1021.0 0.0
30/08:30pm 10.2 9.9 8.8 91 0.7 CALM 0 0 0 0 1020.9 1020.9 0.0
30/08:00pm 10.2 9.1 8.3 88 0.9 W 4 7 2 4 1020.9 1020.9 0.0
30/07:30pm 10.9 10.6 8.8 87 1.0 CALM 0 0 0 0 1020.8 1020.8 0.0
30/07:00pm 12.0 12.0 9.7 86 1.2 CALM 0 0 0 0 1020.4 1020.4 0.0
30/06:30pm 12.6 11.5 9.8 83 1.4 ESE 6 7 3 4 1020.1 1020.1 0.0
30/06:00pm 13.3 11.8 9.0 75 2.2 ESE 7 9 4 5 1019.8 1019.8 0.0
30/05:30pm 14.9 13.6 10.1 73 2.5 SSE 7 9 4 5 1019.6 1019.6 0.0
30/05:00pm 17.1 14.6 11.2 68 3.2 SE 15 20 8 11 1019.3 1019.3 0.0
30/04:30pm 18.6 16.3 11.9 65 3.7 SE 15 20 8 11 1019.0 1019.0 0.0
30/04:00pm 18.9 16.4 11.2 61 4.2 SE 15 17 8 9 1018.9 1018.9 0.0
30/03:30pm 20.8 19.5 11.4 55 5.2 SE 9 11 5 6 1018.8 1018.8 0.0
30/03:00pm 21.8 20.8 10.9 50 6.0 SE 7 13 4 7 1018.6 1018.6 0.0
30/02:30pm 19.9 18.2 10.0 53 5.3 SE 9 15 5 8 1018.9 1018.9 0.0
30/02:00pm 20.9 18.7 10.7 52 5.6 SSE 13 17 7 9 1019.1 1019.1 0.0
30/01:30pm 20.2 18.5 9.7 51 5.6 SSE 9 15 5 8 1019.2 1019.2 0.0
30/01:00pm 20.5 18.8 9.7 50 5.8 S 9 17 5 9 1019.5 1019.5 0.0
30/12:30pm 19.5 16.6 9.7 53 5.2 SSE 15 20 8 11 1020.0 1020.0 0.0
30/12:00pm 20.1 18.0 8.1 46 6.2 SSW 9 15 5 8 1020.5 1020.5 0.0
30/11:30am 18.9 17.1 7.0 46 6.0 SW 6 9 3 5 1020.9 1020.9 0.0
30/11:00am 18.8 16.2 6.3 44 6.2 NW 9 13 5 7 1021.3 1021.3 0.0
30/10:30am 17.5 15.5 7.0 50 5.2 WNW 7 11 4 6 1021.8 1021.8 0.0
30/10:00am 15.6 13.3 5.5 51 4.8 NW 7 9 4 5 1022.0 1022.0 0.0
30/09:30am 13.6 11.4 6.0 60 3.6 WNW 7 11 4 6 1022.1 1022.1 0.0
30/09:00am 11.5 9.3 6.0 69 2.6 WNW 7 11 4 6 1022.2 1022.2 0.0
30/08:30am 9.7 7.4 5.7 76 1.8 WNW 7 9 4 5 1021.9 1021.9 0.0
30/08:00am 7.3 4.8 4.6 83 1.2 W 7 11 4 6 1021.8 1021.8 0.0
30/07:30am 6.2 3.9 5.0 92 0.5 W 6 9 3 5 1021.4 1021.4 0.0
30/07:00am 4.1 0.9 3.1 93 0.4 WNW 9 11 5 6 1021.0 1021.0 0.0
30/06:30am 1.9 -1.1 0.6 91 0.5 SW 6 7 3 4 1020.9 1020.9 0.0
30/06:00am 2.7 0.9 1.1 89 0.6 CALM 0 0 0 0 1020.3 1020.3 0.0
30/05:30am 2.9 -0.2 1.1 88 0.7 SW 7 9 4 5 1019.9 1019.9 0.0
30/05:00am 5.0 1.7 2.4 83 1.0 W 9 13 5 7 1019.7 1019.7 0.0
30/04:30am 5.0 1.7 2.5 84 1.0 WNW 9 11 5 6 1019.4 1019.4 0.0
30/04:00am 7.5 4.0 3.7 77 1.6 WNW 11 13 6 7 1019.3 1019.3 0.0
30/03:30am 8.0 4.6 4.2 77 1.7 WNW 11 15 6 8 1019.3 1019.3 0.0
30/03:00am 7.6 4.1 3.6 76 1.7 W 11 13 6 7 1019.5 1019.5 0.0
30/02:30am 6.2 2.9 2.7 78 1.4 W 9 13 5 7 1019.5 1019.5 0.0
30/02:00am 8.6 5.3 4.4 75 1.8 WNW 11 13 6 7 1019.4 1019.4 0.0
30/01:30am 7.1 3.9 3.3 77 1.6 WNW 9 13 5 7 1019.7 1019.7 0.0
30/01:00am 8.7 5.9 5.3 79 1.5 WNW 9 13 5 7 1019.8 1019.8 0.0
30/12:30am 7.4 4.3 3.5 76 1.7 NW 9 13 5 7 1019.7 1019.7 0.0
30/12:00am 8.3 4.8 3.6 72 2.0 WNW 11 15 6 8 1020.0 1020.0 0.0
 
Date/Time
EST
Temp
°C
App
Temp
°C
Dew
Point
°C
Rel
Hum
%
Delta-T
°C
Wind Press
QNH
hPa
Press
MSL
hPa
Rain since
9am
mm
Dir  Spd
km/h
Gust
km/h
Spd
kts
Gust
kts
29/11:30pm 10.2 6.9 4.6 68 2.5 NW 11 17 6 9 1019.9 1019.9 0.0
29/11:00pm 10.5 6.5 4.9 68 2.5 NW 15 19 8 10 1020.0 1020.0 0.0
29/10:30pm 10.2 6.5 4.6 68 2.5 NW 13 15 7 8 1020.0 1020.0 0.0
29/10:00pm 11.2 8.0 5.1 66 2.8 WNW 11 15 6 8 1020.0 1020.0 0.0
29/09:30pm 12.0 8.3 4.7 61 3.3 NW 13 15 7 8 1019.9 1019.9 0.0
29/09:00pm 12.4 8.5 5.3 62 3.3 NNW 15 19 8 10 1019.9 1019.9 0.0
29/08:30pm 11.3 7.8 5.6 68 2.6 WNW 13 17 7 9 1019.8 1019.8 0.0
29/08:00pm 9.1 8.1 5.8 80 1.5 CALM 0 7 0 4 1019.5 1019.5 0.0
29/07:30pm 10.1 9.2 6.1 76 1.9 CALM 0 0 0 0 1019.2 1019.2 0.0
29/07:00pm 11.0 9.7 4.0 62 3.1 CALM 0 0 0 0 1019.0 1019.0 0.0
29/06:30pm 11.9 9.6 4.9 62 3.2 E 6 9 3 5 1018.7 1018.7 0.0
29/06:00pm 14.8 13.8 5.6 54 4.4 CALM 0 0 0 0 1018.5 1018.5 0.0
29/05:30pm 15.4 12.9 4.5 48 5.1 N 7 9 4 5 1018.2 1018.2 0.0
29/05:00pm 18.5 15.9 4.3 39 6.7 N 7 9 4 5 1018.2 1018.2 0.0
29/04:30pm 21.5 18.8 3.7 31 8.6 NNE 7 11 4 6 1018.3 1018.3 0.0
29/04:00pm 22.7 19.5 3.3 28 9.3 NNE 9 13 5 7 1018.3 1018.3 0.0
29/03:30pm 23.5 20.5 4.0 28 9.6 NNW 9 15 5 8 1018.5 1018.5 0.0
29/03:00pm 23.9 20.9 4.3 28 9.7 NNW 9 15 5 8 1018.6 1018.6 0.0
29/02:30pm 23.6 20.3 2.4 25 10.1 N 9 20 5 11 1018.7 1018.7 0.0
29/02:00pm 24.0 20.3 4.4 28 9.7 NNW 13 20 7 11 1019.1 1019.1 0.0
29/01:30pm 23.8 20.1 4.2 28 9.7 NNW 13 20 7 11 1019.4 1019.4 0.0
29/01:00pm 23.2 19.3 3.2 27 9.6 N 13 20 7 11 1019.8 1019.8 0.0
29/12:30pm 23.0 20.4 6.3 34 8.5 WNW 9 15 5 8 1020.6 1020.6 0.0
29/12:00pm 21.2 17.9 4.7 34 8.0 NW 11 17 6 9 1021.3 1021.3 0.0
29/11:30am 20.5 16.7 4.1 34 7.9 NW 13 20 7 11 1022.0 1022.0 0.0
29/11:00am 20.0 17.7 7.4 44 6.4 NW 9 15 5 8 1022.6 1022.6 0.0
29/10:30am 17.6 15.3 7.6 52 5.1 WNW 9 13 5 7 1023.0 1023.0 0.0
29/10:00am 15.8 13.4 6.8 55 4.4 WNW 9 15 5 8 1023.5 1023.5 0.0
29/09:30am 14.7 12.7 7.0 60 3.8 NW 7 11 4 6 1023.8 1023.8 0.0
29/09:00am 12.1 9.7 7.2 72 2.3 NNW 9 11 5 6 1023.8 1023.8 0.0
29/08:30am 9.1 7.1 6.9 86 1.0 NW 7 7 4 4 1023.8 1023.8 0.0
29/08:00am 7.1 5.0 6.0 93 0.5 NW 6 9 3 5 1023.8 1023.8 0.0
29/07:30am 4.5 3.1 3.5 93 0.4 CALM 0 0 0 0 1023.7 1023.7 0.0
29/07:00am 2.5 0.7 1.5 93 0.4 CALM 0 4 0 2 1023.7 1023.7 0.0
29/06:30am 2.0 -1.0 0.8 92 0.5 NNW 6 7 3 4 1023.3 1023.3 0.0
29/06:00am 2.6 -0.8 1.6 93 0.4 WSW 9 9 5 5 1022.9 1022.9 0.0
29/05:30am 3.9 1.1 3.0 94 0.4 W 7 9 4 5 1022.6 1022.6 0.0
29/05:00am 2.5 -0.4 1.5 93 0.4 W 6 11 3 6 1022.2 1022.2 0.0
29/04:30am 2.5 -0.4 1.5 93 0.4 WNW 6 7 3 4 1022.1 1022.1 0.0
29/04:00am 2.7 -0.2 1.7 93 0.4 WNW 6 6 3 3 1022.1 1022.1 0.0
29/03:30am 2.5 0.0 1.3 92 0.5 W 4 7 2 4 1022.3 1022.3 0.0
29/03:00am 2.6 -0.3 1.4 92 0.5 WSW 6 7 3 4 1022.5 1022.5 0.0
29/02:30am 3.4 0.6 2.1 91 0.5 WNW 6 6 3 3 1022.6 1022.6 0.0
29/02:00am 3.9 1.0 2.7 92 0.5 WNW 7 9 4 5 1022.6 1022.6 0.0
29/01:30am 4.1 1.4 2.9 92 0.5 W 6 7 3 4 1022.7 1022.7 0.0
29/01:00am 4.9 2.2 3.7 92 0.5 W 7 9 4 5 1022.7 1022.7 0.0
29/12:30am 5.3 2.7 4.3 93 0.4 W 7 9 4 5 1022.7 1022.7 0.0
29/12:00am 4.9 2.4 3.6 91 0.5 W 6 7 3 4 1022.8 1022.8 0.0
 
Date/Time
EST
Temp
°C
App
Temp
°C
Dew
Point
°C
Rel
Hum
%
Delta-T
°C
Wind Press
QNH
hPa
Press
MSL
hPa
Rain since
9am
mm
Dir  Spd
km/h
Gust
km/h
Spd
kts
Gust
kts
28/11:30pm 5.3 2.8 3.5 88 0.8 W 6 7 3 4 1022.9 1022.9 0.0
28/11:00pm 7.3 4.6 5.8 90 0.7 W 9 11 5 6 1022.9 1022.9 0.0
28/10:30pm 5.1 2.5 3.0 86 0.9 WNW 6 9 3 5 1023.1 1023.1 0.0
28/10:00pm 6.2 4.9 3.9 85 1.0 CALM 0 6 0 3 1023.0 1023.0 0.0
28/09:30pm 7.0 4.1 4.8 86 1.0 W 9 11 5 6 1023.1 1023.1 0.0
28/09:00pm 6.6 5.4 4.8 88 0.8 CALM 0 9 0 5 1023.2 1023.2 0.0
28/08:30pm 6.5 4.1 4.2 85 1.0 SW 6 9 3 5 1023.2 1023.2 0.0
28/08:00pm 7.3 5.7 4.6 83 1.2 W 2 6 1 3 1023.1 1023.1 0.0
28/07:30pm 8.3 6.4 4.9 79 1.5 SW 4 6 2 3 1022.8 1022.8 0.0

Other Formats:

Comma delimited format used in spreadsheet applications
http://www.bom.gov.au/fwo/IDN60801/IDN60801.94573.axf

JavaScript Object Notation format (JSON) in row-major order
http://www.bom.gov.au/fwo/IDN60801/IDN60801.94573.json